createdAt,value
2019-01-21T00:00:53.391Z,-3.20
2019-01-21T00:03:33.636Z,-3.20
2019-01-21T00:06:13.756Z,-3.20
2019-01-21T00:08:53.933Z,-3.10
2019-01-21T00:11:35.072Z,-3.10
2019-01-21T00:14:15.500Z,-3.10
2019-01-21T00:16:55.364Z,-3.00
2019-01-21T00:19:35.522Z,-3.00
2019-01-21T00:22:15.876Z,-3.00
2019-01-21T00:24:56.077Z,-3.10
2019-01-21T00:27:36.112Z,-3.10
2019-01-21T00:30:16.678Z,-3.10
2019-01-21T00:32:57.443Z,-3.10
2019-01-21T00:35:37.390Z,-3.10
2019-01-21T00:38:17.384Z,-3.00
2019-01-21T00:40:57.517Z,-3.00
2019-01-21T00:43:37.254Z,-3.00
2019-01-21T00:46:17.488Z,-3.10
2019-01-21T00:48:57.344Z,-3.10
2019-01-21T00:51:37.067Z,-3.10
2019-01-21T00:54:17.452Z,-3.20
2019-01-21T00:56:56.965Z,-3.20
2019-01-21T00:59:36.287Z,-3.10
2019-01-21T01:02:16.522Z,-3.20
2019-01-21T01:04:58.794Z,-3.20
2019-01-21T01:07:38.620Z,-3.20
2019-01-21T01:10:18.798Z,-3.20
2019-01-21T01:12:58.055Z,-3.20
2019-01-21T01:15:38.264Z,-3.30
2019-01-21T01:18:18.151Z,-3.40
2019-01-21T01:20:58.267Z,-3.30
2019-01-21T01:23:38.426Z,-3.40
2019-01-21T01:26:18.490Z,-3.40
2019-01-21T01:28:58.744Z,-3.40
2019-01-21T01:31:38.674Z,-3.40
2019-01-21T01:34:17.963Z,-3.40
2019-01-21T01:36:58.011Z,-3.40
2019-01-21T01:39:38.067Z,-3.30
2019-01-21T01:42:18.029Z,-3.30
2019-01-21T01:44:58.225Z,-3.30
2019-01-21T01:47:44.668Z,-3.40
2019-01-21T01:50:20.449Z,-3.60
2019-01-21T01:53:00.351Z,-3.60
2019-01-21T01:55:40.388Z,-3.70
2019-01-21T01:58:20.482Z,-3.80
2019-01-21T02:01:00.667Z,-3.80
2019-01-21T02:03:40.505Z,-3.80
2019-01-21T02:06:20.670Z,-3.90
2019-01-21T02:09:00.853Z,-3.90
2019-01-21T02:11:40.805Z,-3.80
2019-01-21T02:14:20.837Z,-3.90
2019-01-21T02:16:58.243Z,-4.00
2019-01-21T02:19:56.943Z,-4.00
2019-01-21T02:26:11.442Z,-4.00
2019-01-21T02:28:51.343Z,-4.00
2019-01-21T02:31:31.666Z,-4.00
2019-01-21T02:34:11.822Z,-4.10
2019-01-21T02:36:51.735Z,-4.00
2019-01-21T02:39:31.866Z,-4.00
2019-01-21T02:42:11.931Z,-3.90
2019-01-21T02:44:51.820Z,-3.90
2019-01-21T02:47:32.349Z,-3.90
2019-01-21T02:50:12.032Z,-3.80
2019-01-21T02:52:52.093Z,-3.90
2019-01-21T02:55:32.478Z,-3.90
2019-01-21T02:58:12.248Z,-4.00
2019-01-21T03:00:52.212Z,-4.10
2019-01-21T03:03:32.504Z,-4.10
2019-01-21T03:06:12.549Z,-4.10
2019-01-21T03:08:52.690Z,-4.20
2019-01-21T03:11:31.865Z,-4.30
2019-01-21T03:14:11.932Z,-4.30
2019-01-21T03:16:51.823Z,-4.30
2019-01-21T03:19:31.765Z,-4.40
2019-01-21T03:22:12.075Z,-4.40
2019-01-21T03:24:51.851Z,-4.40
2019-01-21T03:27:31.929Z,-4.50
2019-01-21T03:30:12.106Z,-4.50
2019-01-21T03:32:52.286Z,-4.60
2019-01-21T03:35:31.618Z,-4.60
2019-01-21T03:38:11.732Z,-4.60
2019-01-21T03:40:51.056Z,-4.60
2019-01-21T03:43:31.403Z,-4.60
2019-01-21T03:46:11.331Z,-4.50
2019-01-21T03:48:50.969Z,-4.40
2019-01-21T03:51:30.963Z,-4.40
2019-01-21T03:54:10.919Z,-4.40
2019-01-21T03:56:50.942Z,-4.40
2019-01-21T03:59:30.981Z,-4.40
2019-01-21T04:02:11.091Z,-4.40
2019-01-21T04:04:51.137Z,-4.60
2019-01-21T04:07:31.531Z,-4.60
2019-01-21T04:10:11.346Z,-4.80
2019-01-21T04:12:51.511Z,-4.80
2019-01-21T04:15:31.584Z,-4.90
2019-01-21T04:18:11.675Z,-4.80
2019-01-21T04:20:51.726Z,-4.90
2019-01-21T04:23:31.928Z,-4.80
2019-01-21T04:26:12.074Z,-4.80
2019-01-21T04:28:52.149Z,-4.80
2019-01-21T04:31:32.110Z,-4.70
2019-01-21T04:34:12.297Z,-4.70
2019-01-21T04:36:52.823Z,-4.80
2019-01-21T04:39:32.519Z,-4.80
2019-01-21T04:42:12.509Z,-4.90
2019-01-21T04:44:51.829Z,-4.90
2019-01-21T04:47:31.783Z,-4.90
2019-01-21T04:50:12.187Z,-5.10
2019-01-21T04:52:52.059Z,-5.10
2019-01-21T04:55:31.562Z,-5.10
2019-01-21T04:58:40.035Z,-5.20
2019-01-21T05:01:46.162Z,-5.20
2019-01-21T05:04:26.095Z,-5.10
2019-01-21T05:07:06.196Z,-5.00
2019-01-21T05:09:47.981Z,-5.00
2019-01-21T05:12:27.369Z,-5.00
2019-01-21T05:15:07.261Z,-5.10
2019-01-21T05:17:47.300Z,-5.10
2019-01-21T05:20:27.502Z,-5.20
2019-01-21T05:23:08.546Z,-5.20
2019-01-21T05:25:48.737Z,-5.30
2019-01-21T05:28:28.874Z,-5.30
2019-01-21T05:31:08.120Z,-5.40
2019-01-21T05:33:47.451Z,-5.60
2019-01-21T05:36:27.327Z,-5.60
2019-01-21T05:39:07.441Z,-5.60
2019-01-21T05:41:47.396Z,-5.60
2019-01-21T05:44:27.433Z,-5.70
2019-01-21T05:47:08.498Z,-5.70
2019-01-21T05:49:48.554Z,-5.60
2019-01-21T05:52:28.506Z,-5.50
2019-01-21T05:55:08.490Z,-5.60
2019-01-21T05:57:48.807Z,-5.60
2019-01-21T06:00:28.585Z,-5.60
2019-01-21T06:03:08.642Z,-5.60
2019-01-21T06:05:48.937Z,-5.60
2019-01-21T06:08:29.005Z,-5.80
2019-01-21T06:11:08.786Z,-5.80
2019-01-21T06:13:49.086Z,-5.90
2019-01-21T06:16:28.936Z,-5.90
2019-01-21T06:19:09.527Z,-5.90
2019-01-21T06:21:48.855Z,-6.00
2019-01-21T06:24:29.011Z,-6.00
2019-01-21T06:27:09.081Z,-6.10
2019-01-21T06:29:49.225Z,-6.20
2019-01-21T06:32:29.495Z,-6.20
2019-01-21T06:35:09.509Z,-6.20
2019-01-21T06:37:49.418Z,-6.30
2019-01-21T06:40:29.423Z,-6.30
2019-01-21T06:43:09.362Z,-6.30
2019-01-21T06:45:49.622Z,-6.40
2019-01-21T06:48:29.496Z,-6.40
2019-01-21T06:51:08.721Z,-6.40
2019-01-21T06:53:48.543Z,-6.40
2019-01-21T06:56:29.611Z,-6.40
2019-01-21T06:59:10.527Z,-6.50
2019-01-21T07:01:50.244Z,-6.50
2019-01-21T07:04:29.880Z,-6.50
2019-01-21T07:07:09.878Z,-6.70
2019-01-21T07:09:50.181Z,-6.70
2019-01-21T07:12:30.014Z,-6.70
2019-01-21T07:15:10.152Z,-6.70
2019-01-21T07:17:50.532Z,-6.70
2019-01-21T07:20:30.535Z,-6.60
2019-01-21T07:23:09.988Z,-6.60
2019-01-21T07:25:50.059Z,-6.60
2019-01-21T07:28:30.206Z,-6.50
2019-01-21T07:31:09.801Z,-6.50
2019-01-21T07:33:52.138Z,-6.50
2019-01-21T07:37:00.172Z,-6.50
2019-01-21T07:39:40.130Z,-6.40
2019-01-21T07:42:20.167Z,-6.40
2019-01-21T07:45:00.284Z,-6.40
2019-01-21T07:47:40.493Z,-6.40
2019-01-21T07:50:20.253Z,-6.50
2019-01-21T07:53:00.301Z,-6.50
2019-01-21T07:55:40.366Z,-6.50
2019-01-21T07:58:20.594Z,-6.40
2019-01-21T08:01:00.734Z,-6.40
2019-01-21T08:03:40.895Z,-6.40
2019-01-21T08:06:20.964Z,-6.40
2019-01-21T08:09:00.224Z,-6.30
2019-01-21T08:11:40.341Z,-6.30
2019-01-21T08:14:20.453Z,-6.20
2019-01-21T08:17:00.515Z,-6.10
2019-01-21T08:19:40.683Z,-6.10
2019-01-21T08:22:20.663Z,-6.00
2019-01-21T08:25:00.882Z,-6.10
2019-01-21T08:27:41.139Z,-5.90
2019-01-21T08:30:21.138Z,-5.80
2019-01-21T08:33:01.263Z,-5.70
2019-01-21T08:35:41.774Z,-5.60
2019-01-21T08:38:21.515Z,-5.50
2019-01-21T08:41:01.848Z,-5.40
2019-01-21T08:43:41.902Z,-5.30
2019-01-21T08:46:24.205Z,-5.20
2019-01-21T08:49:03.822Z,-5.20
2019-01-21T08:51:44.312Z,-5.20
2019-01-21T08:54:24.516Z,-5.00
2019-01-21T08:57:04.566Z,-4.90
2019-01-21T08:59:44.552Z,-4.90
2019-01-21T09:02:24.720Z,-4.90
2019-01-21T09:05:04.666Z,-4.90
2019-01-21T09:07:44.756Z,-4.80
2019-01-21T09:10:24.917Z,-4.80
2019-01-21T09:13:04.920Z,-4.80
2019-01-21T09:15:45.048Z,-4.70
2019-01-21T09:18:25.063Z,-4.70
2019-01-21T09:21:05.031Z,-4.60
2019-01-21T09:23:45.396Z,-4.60
2019-01-21T09:26:25.538Z,-4.40
2019-01-21T09:29:05.652Z,-4.40
2019-01-21T09:31:45.336Z,-4.30
2019-01-21T09:34:25.447Z,-4.30
2019-01-21T09:37:05.836Z,-4.10
2019-01-21T09:39:45.974Z,-4.00
2019-01-21T09:42:25.992Z,-3.90
2019-01-21T09:45:05.830Z,-3.80
2019-01-21T09:47:45.916Z,-3.70
2019-01-21T09:50:26.104Z,-3.60
2019-01-21T09:53:06.067Z,-3.40
2019-01-21T09:55:46.304Z,-3.40
2019-01-21T09:58:27.675Z,-3.30
2019-01-21T10:01:08.753Z,-3.30
2019-01-21T10:03:48.884Z,-3.20
2019-01-21T10:06:29.219Z,-3.10
2019-01-21T10:09:09.095Z,-3.10
2019-01-21T10:11:49.156Z,-2.90
2019-01-21T10:14:29.048Z,-2.80
2019-01-21T10:17:09.300Z,-2.70
2019-01-21T10:19:50.791Z,-2.60
2019-01-21T10:22:30.535Z,-2.60
2019-01-21T10:25:10.613Z,-2.40
2019-01-21T10:27:50.746Z,-2.30
2019-01-21T10:30:30.959Z,-2.20
2019-01-21T10:33:10.786Z,-2.10
2019-01-21T10:35:51.667Z,-2.00
2019-01-21T10:38:31.908Z,-2.00
2019-01-21T10:41:11.769Z,-2.00
2019-01-21T10:43:51.084Z,-2.00
2019-01-21T10:46:31.217Z,-1.90
2019-01-21T10:49:11.346Z,-1.90
2019-01-21T10:51:51.241Z,-1.80
2019-01-21T10:54:31.322Z,-1.70
2019-01-21T10:57:11.531Z,-1.70
2019-01-21T10:59:51.628Z,-1.60
2019-01-21T11:02:32.754Z,-1.50
2019-01-21T11:05:12.969Z,-1.50
2019-01-21T11:07:52.829Z,-1.50
2019-01-21T11:10:32.674Z,-1.30
2019-01-21T11:13:13.721Z,-1.20
2019-01-21T11:15:53.958Z,-1.20
2019-01-21T11:18:34.047Z,-1.20
2019-01-21T11:21:14.101Z,-1.10
2019-01-21T11:23:54.174Z,-1.10
2019-01-21T11:26:34.201Z,-1.00
2019-01-21T11:29:14.091Z,-0.90
2019-01-21T11:31:54.270Z,-0.80
2019-01-21T11:34:34.162Z,-0.80
2019-01-21T11:37:14.265Z,-0.70
2019-01-21T11:39:54.423Z,-0.60
2019-01-21T11:42:34.533Z,-0.60
2019-01-21T11:45:18.583Z,-0.60
2019-01-21T11:47:56.353Z,-0.60
2019-01-21T11:50:37.430Z,-0.70
2019-01-21T11:53:17.285Z,-0.60
2019-01-21T11:55:57.165Z,-0.50
2019-01-21T11:58:36.771Z,-0.50
2019-01-21T12:01:16.326Z,-0.60
2019-01-21T12:03:56.375Z,-0.50
2019-01-21T12:06:36.412Z,-0.50
2019-01-21T12:09:16.525Z,-0.40
2019-01-21T12:11:56.961Z,-0.20
2019-01-21T12:14:36.708Z,-0.20
2019-01-21T12:17:16.754Z,-0.10
2019-01-21T12:19:56.743Z,0.00
2019-01-21T12:22:36.787Z,0.20
2019-01-21T12:25:17.190Z,0.30
2019-01-21T12:27:56.851Z,0.30
2019-01-21T12:30:36.928Z,0.20
2019-01-21T12:33:17.070Z,0.20
2019-01-21T12:35:57.180Z,0.50
2019-01-21T12:38:36.744Z,1.40
2019-01-21T12:41:21.606Z,3.10
2019-01-21T12:43:58.251Z,4.80
2019-01-21T12:46:39.443Z,5.90
2019-01-21T12:49:20.694Z,6.60
2019-01-21T12:52:00.413Z,7.80
2019-01-21T12:54:40.305Z,8.90
2019-01-21T12:57:20.568Z,8.40
2019-01-21T13:00:00.597Z,9.00
2019-01-21T13:02:40.757Z,9.60
2019-01-21T13:05:20.616Z,10.40
2019-01-21T13:08:00.717Z,10.50
2019-01-21T13:10:40.663Z,10.90
2019-01-21T13:13:20.656Z,11.10
2019-01-21T13:16:00.568Z,11.40
2019-01-21T13:18:40.583Z,11.20
2019-01-21T13:21:20.743Z,10.90
2019-01-21T13:24:00.979Z,10.20
2019-01-21T13:26:41.044Z,10.00
2019-01-21T13:29:21.301Z,9.40
2019-01-21T13:32:01.087Z,9.10
2019-01-21T13:34:41.088Z,9.30
2019-01-21T13:37:20.366Z,9.40
2019-01-21T13:40:26.508Z,9.40
2019-01-21T13:43:06.250Z,8.80
2019-01-21T13:45:45.671Z,8.30
2019-01-21T13:48:26.021Z,8.80
2019-01-21T13:51:05.677Z,9.10
2019-01-21T13:53:45.839Z,9.10
2019-01-21T13:56:26.985Z,9.20
2019-01-21T13:59:07.066Z,9.70
2019-01-21T14:01:47.150Z,10.20
2019-01-21T14:04:27.313Z,10.10
2019-01-21T14:07:07.438Z,10.10
2019-01-21T14:09:47.383Z,10.00
2019-01-21T14:12:27.434Z,9.20
2019-01-21T14:15:07.500Z,8.20
2019-01-21T14:17:47.476Z,7.10
2019-01-21T14:20:27.337Z,6.40
2019-01-21T14:23:07.468Z,5.90
2019-01-21T14:25:47.526Z,5.60
2019-01-21T14:28:27.800Z,5.30
2019-01-21T14:31:07.899Z,5.00
2019-01-21T14:33:47.870Z,4.70
2019-01-21T14:36:28.117Z,4.40
2019-01-21T14:39:08.041Z,4.20
2019-01-21T14:41:47.954Z,4.40
2019-01-21T14:44:28.153Z,5.30
2019-01-21T14:47:08.207Z,6.30
2019-01-21T14:49:48.321Z,7.40
2019-01-21T14:52:28.315Z,7.90
2019-01-21T14:55:08.526Z,8.00
2019-01-21T14:57:48.520Z,7.50
2019-01-21T15:00:28.543Z,6.70
2019-01-21T15:03:08.519Z,5.90
2019-01-21T15:05:48.749Z,5.00
2019-01-21T15:08:28.592Z,4.50
2019-01-21T15:11:08.745Z,3.70
2019-01-21T15:13:48.854Z,3.30
2019-01-21T15:16:28.728Z,3.10
2019-01-21T15:19:08.585Z,3.00
2019-01-21T15:21:48.788Z,2.70
2019-01-21T15:24:28.849Z,2.40
2019-01-21T15:27:09.030Z,2.10
2019-01-21T15:29:49.138Z,1.90
2019-01-21T15:32:28.339Z,1.70
2019-01-21T15:35:08.354Z,1.60
2019-01-21T15:37:48.448Z,1.40
2019-01-21T15:40:28.895Z,1.30
2019-01-21T15:43:08.811Z,1.10
2019-01-21T15:45:51.752Z,0.90
2019-01-21T15:48:31.645Z,0.70
2019-01-21T15:51:11.686Z,0.60
2019-01-21T15:53:52.048Z,0.40
2019-01-21T15:56:31.791Z,0.30
2019-01-21T15:59:12.076Z,0.20
2019-01-21T16:01:51.916Z,0.20
2019-01-21T16:04:31.878Z,0.10
2019-01-21T16:07:11.120Z,0.00
2019-01-21T16:09:51.412Z,-0.10
2019-01-21T16:12:31.328Z,-0.20
2019-01-21T16:15:11.401Z,-0.20
2019-01-21T16:17:51.509Z,-0.30
2019-01-21T16:20:31.831Z,-0.30
2019-01-21T16:23:11.740Z,-0.30
2019-01-21T16:25:52.166Z,-0.30
2019-01-21T16:28:32.011Z,-0.40
2019-01-21T16:31:12.218Z,-0.50
2019-01-21T16:33:53.455Z,-0.50
2019-01-21T16:36:59.970Z,-0.60
2019-01-21T16:43:13.592Z,-0.70
2019-01-21T16:45:54.022Z,-0.70
2019-01-21T16:48:33.788Z,-0.70
2019-01-21T16:51:20.426Z,-0.80
2019-01-21T16:53:57.772Z,-0.80
2019-01-21T16:56:37.780Z,-0.80
2019-01-21T16:59:18.077Z,-0.80
2019-01-21T17:01:57.961Z,-0.80
2019-01-21T17:04:38.284Z,-0.80
2019-01-21T17:07:18.451Z,-0.80
2019-01-21T17:09:58.343Z,-0.80
2019-01-21T17:12:38.222Z,-0.80
2019-01-21T17:15:18.099Z,-0.80
2019-01-21T17:17:58.249Z,-0.90
2019-01-21T17:20:38.263Z,-0.90
2019-01-21T17:23:18.504Z,-1.00
2019-01-21T17:25:58.685Z,-1.00
2019-01-21T17:28:38.605Z,-1.00
2019-01-21T17:31:18.701Z,-1.00
2019-01-21T17:33:58.681Z,-0.90
2019-01-21T17:36:38.343Z,-0.90
2019-01-21T17:39:18.546Z,-0.80
2019-01-21T17:41:58.635Z,-0.70
2019-01-21T17:44:38.695Z,-0.70
2019-01-21T17:47:18.829Z,-0.60
2019-01-21T17:49:59.643Z,-0.60
2019-01-21T17:52:39.591Z,-0.60
2019-01-21T17:55:19.679Z,-0.60
2019-01-21T17:57:59.627Z,-0.60
2019-01-21T18:00:39.594Z,-0.60
2019-01-21T18:03:19.493Z,-0.70
2019-01-21T18:05:59.585Z,-0.70
2019-01-21T18:08:39.670Z,-0.80
2019-01-21T18:11:19.906Z,-0.80
2019-01-21T18:14:00.255Z,-0.80
2019-01-21T18:16:40.122Z,-0.70
2019-01-21T18:19:20.203Z,-0.70
2019-01-21T18:22:00.129Z,-0.70
2019-01-21T18:24:40.311Z,-0.70
2019-01-21T18:27:20.535Z,-0.70
2019-01-21T18:30:02.011Z,-0.60
2019-01-21T18:32:43.328Z,-0.60
2019-01-21T18:35:22.677Z,-0.40
2019-01-21T18:38:03.106Z,-0.40
2019-01-21T18:40:42.965Z,-0.20
2019-01-21T18:43:23.226Z,-0.10
2019-01-21T18:46:03.068Z,-0.10
2019-01-21T18:48:42.633Z,-0.20
2019-01-21T18:51:22.363Z,-0.20
2019-01-21T18:54:01.987Z,-0.10
2019-01-21T18:56:42.107Z,-0.10
2019-01-21T18:59:22.048Z,-0.10
2019-01-21T19:02:01.585Z,-0.20
2019-01-21T19:04:41.582Z,-0.10
2019-01-21T19:07:22.823Z,-0.10
2019-01-21T19:10:03.144Z,-0.10
2019-01-21T19:12:44.871Z,-0.10
2019-01-21T19:15:25.857Z,-0.10
2019-01-21T19:18:05.422Z,-0.20
2019-01-21T19:20:45.247Z,-0.20
2019-01-21T19:23:25.464Z,-0.20
2019-01-21T19:26:05.949Z,-0.20
2019-01-21T19:28:45.723Z,-0.20
2019-01-21T19:31:25.688Z,-0.10
2019-01-21T19:34:05.744Z,-0.20
2019-01-21T19:36:45.715Z,-0.20
2019-01-21T19:39:26.445Z,-0.20
2019-01-21T19:42:05.943Z,-0.20
2019-01-21T19:44:45.713Z,-0.20
2019-01-21T19:47:25.692Z,-0.20
2019-01-21T19:50:05.864Z,-0.30
2019-01-21T19:52:46.018Z,-0.30
2019-01-21T19:55:26.266Z,-0.20
2019-01-21T19:58:06.007Z,-0.20
2019-01-21T20:00:46.121Z,-0.10
2019-01-21T20:03:26.089Z,-0.10
2019-01-21T20:06:06.297Z,0.00
2019-01-21T20:08:46.342Z,0.10
2019-01-21T20:11:26.499Z,0.20
2019-01-21T20:14:06.260Z,0.20
2019-01-21T20:16:46.111Z,0.30
2019-01-21T20:19:25.682Z,0.50
2019-01-21T20:22:07.949Z,0.60
2019-01-21T20:24:47.431Z,0.70
2019-01-21T20:27:27.505Z,0.70
2019-01-21T20:30:07.455Z,0.50
2019-01-21T20:32:47.535Z,0.40
2019-01-21T20:35:27.628Z,0.40
2019-01-21T20:38:07.759Z,0.40
2019-01-21T20:40:48.052Z,0.50
2019-01-21T20:43:28.460Z,0.50
2019-01-21T20:46:08.395Z,0.40
2019-01-21T20:48:48.477Z,0.40
2019-01-21T20:51:28.358Z,0.30
2019-01-21T20:54:08.520Z,0.20
2019-01-21T20:56:49.892Z,0.20
2019-01-21T20:59:29.566Z,0.10
2019-01-21T21:02:09.650Z,0.10
2019-01-21T21:04:48.980Z,0.10
2019-01-21T21:07:29.001Z,0.10
2019-01-21T21:10:09.145Z,0.20
2019-01-21T21:12:49.394Z,0.30
2019-01-21T21:15:32.783Z,0.30
2019-01-21T21:18:13.274Z,0.30
2019-01-21T21:20:53.347Z,0.30
2019-01-21T21:23:32.988Z,0.20
2019-01-21T21:26:13.248Z,0.10
2019-01-21T21:28:53.073Z,0.20
2019-01-21T21:31:32.811Z,0.30
2019-01-21T21:34:12.744Z,0.30
2019-01-21T21:36:53.178Z,0.50
2019-01-21T21:39:32.855Z,0.50
2019-01-21T21:42:13.071Z,0.50
2019-01-21T21:44:53.008Z,0.50
2019-01-21T21:47:33.145Z,0.60
2019-01-21T21:50:13.016Z,0.50
2019-01-21T21:52:53.043Z,0.40
2019-01-21T21:55:33.312Z,0.30
2019-01-21T21:58:13.442Z,0.20
2019-01-21T22:00:53.548Z,0.20
2019-01-21T22:03:33.784Z,0.20
2019-01-21T22:06:13.890Z,0.10
2019-01-21T22:08:54.018Z,0.10
2019-01-21T22:11:34.061Z,0.20
2019-01-21T22:14:15.327Z,0.30
2019-01-21T22:16:55.780Z,0.40
2019-01-21T22:19:35.629Z,0.60
2019-01-21T22:22:19.932Z,0.70
2019-01-21T22:25:02.130Z,0.80
2019-01-21T22:27:41.949Z,0.80
2019-01-21T22:30:21.953Z,0.60
2019-01-21T22:33:01.922Z,0.60
2019-01-21T22:35:41.912Z,0.50
2019-01-21T22:38:21.924Z,0.50
2019-01-21T22:41:01.951Z,0.60
2019-01-21T22:43:42.040Z,0.70
2019-01-21T22:46:22.421Z,0.70
2019-01-21T22:49:02.535Z,0.60
2019-01-21T22:51:41.774Z,0.50
2019-01-21T22:54:21.620Z,0.30
2019-01-21T22:57:01.544Z,0.20
2019-01-21T22:59:41.814Z,0.20
2019-01-21T23:02:21.558Z,0.10
2019-01-21T23:05:01.735Z,0.10
2019-01-21T23:07:41.768Z,0.20
2019-01-21T23:10:22.138Z,0.30
2019-01-21T23:13:01.762Z,0.40
2019-01-21T23:15:41.704Z,0.50
2019-01-21T23:18:21.573Z,0.50
2019-01-21T23:21:01.915Z,0.50
2019-01-21T23:23:41.474Z,0.50
2019-01-21T23:26:22.566Z,0.40
2019-01-21T23:29:02.674Z,0.30
2019-01-21T23:31:43.851Z,0.20
2019-01-21T23:34:23.914Z,0.20
2019-01-21T23:37:04.015Z,0.30
2019-01-21T23:39:44.125Z,0.30
2019-01-21T23:42:24.561Z,0.30
2019-01-21T23:45:04.407Z,0.30
2019-01-21T23:47:44.296Z,0.40
2019-01-21T23:50:24.007Z,0.40
2019-01-21T23:53:03.673Z,0.40
2019-01-21T23:55:43.793Z,0.30
2019-01-21T23:58:23.866Z,0.30
